Time;durP1;ratioP1;P1;durP2;ratioP2;P2;SDS_P1;SDS_P2;PMS_P1;PMS_P2;Temp;Humidity;BMP_temperature;BMP_pressure;BME280_temperature;BME280_humidity;BME280_pressure;Samples;Min_cycle;Max_cycle;Signal;HPM_P1;HPM_P2
2022/05/27 00:00:20;;;;;;;4.55;1.80;;;17.00;99.90;;;;;;4951393;29;20426;-41
2022/05/27 00:02:47;;;;;;;4.70;1.98;;;17.00;99.90;;;;;;4951641;28;20042;-42
2022/05/27 00:05:16;;;;;;;5.32;2.10;;;17.00;99.90;;;;;;4950544;28;20046;-42
2022/05/27 00:07:42;;;;;;;6.38;2.17;;;17.00;99.90;;;;;;4951406;28;20027;-42
2022/05/27 00:10:09;;;;;;;4.05;2.03;;;17.00;99.90;;;;;;4951242;29;20042;-41
2022/05/27 00:12:35;;;;;;;7.13;2.33;;;17.00;99.90;;;;;;4950150;28;20034;-41
2022/05/27 00:15:01;;;;;;;5.60;2.22;;;17.00;99.90;;;;;;4951711;29;20031;-43
2022/05/27 00:17:27;;;;;;;6.55;2.20;;;17.00;99.90;;;;;;4950507;29;20089;-40
2022/05/27 00:20:01;;;;;;;4.82;2.05;;;17.00;99.90;;;;;;4950822;29;20105;-41
2022/05/27 00:22:27;;;;;;;4.10;2.25;;;17.00;99.90;;;;;;4951184;28;20027;-41
2022/05/27 00:24:53;;;;;;;8.32;2.40;;;17.00;99.90;;;;;;4950922;29;20147;-41
2022/05/27 00:27:18;;;;;;;6.82;2.53;;;17.00;99.90;;;;;;4950550;28;20042;-41
2022/05/27 00:29:44;;;;;;;5.57;2.22;;;17.00;99.90;;;;;;4950361;29;20040;-41
2022/05/27 00:32:09;;;;;;;6.00;2.50;;;17.00;99.90;;;;;;4950748;29;20086;-42
2022/05/27 00:34:35;;;;;;;8.88;2.75;;;17.00;99.90;;;;;;4950207;28;20110;-42
2022/05/27 00:37:04;;;;;;;5.20;2.45;;;16.90;99.90;;;;;;4950879;29;20024;-42
2022/05/27 00:39:30;;;;;;;6.38;2.70;;;16.90;99.90;;;;;;4949982;29;20035;-40
2022/05/27 00:41:56;;;;;;;6.50;2.90;;;16.90;99.90;;;;;;4949748;29;20023;-42
2022/05/27 00:44:21;;;;;;;8.68;3.30;;;16.80;99.90;;;;;;4951124;29;20034;-42
2022/05/27 00:46:47;;;;;;;7.82;2.97;;;16.70;99.90;;;;;;4950212;28;20126;-41
2022/05/27 00:49:23;;;;;;;6.30;2.83;;;16.60;99.90;;;;;;4949216;28;20032;-38
2022/05/27 00:52:10;;;;;;;3.85;2.20;;;16.50;99.90;;;;;;4950771;28;20070;-42
2022/05/27 00:54:36;;;;;;;4.38;2.22;;;16.40;99.90;;;;;;4929963;29;20028;-41
2022/05/27 00:57:10;;;;;;;6.75;2.42;;;16.20;99.90;;;;;;4946213;29;20467;-42
2022/05/27 00:59:47;;;;;;;4.47;1.92;;;16.10;99.90;;;;;;4950387;28;20027;-42
2022/05/27 01:02:12;;;;;;;5.30;2.20;;;15.90;99.90;;;;;;4949764;29;20175;-42
2022/05/27 01:04:39;;;;;;;3.45;1.80;;;15.80;99.90;;;;;;4950072;29;20512;-42
2022/05/27 01:07:05;;;;;;;2.95;1.60;;;15.70;99.90;;;;;;4950096;29;20499;-42
2022/05/27 01:09:35;;;;;;;3.33;1.63;;;15.60;99.90;;;;;;4949548;28;20043;-42
2022/05/27 01:12:20;;;;;;;3.33;1.40;;;15.60;99.90;;;;;;4950626;29;20046;-41
2022/05/27 01:15:06;;;;;;;7.30;2.17;;;15.60;99.90;;;;;;4950166;28;20538;-42
2022/05/27 01:17:49;;;;;;;3.95;1.45;;;15.60;99.90;;;;;;4949376;29;20015;-40
2022/05/27 01:20:29;;;;;;;4.38;1.60;;;15.60;99.90;;;;;;4949893;29;20420;-40
2022/05/27 01:23:42;;;;;;;3.70;1.52;;;15.60;99.90;;;;;;4949511;28;20716;-42
2022/05/27 01:26:29;;;;;;;3.57;1.47;;;15.60;99.90;;;;;;4931477;29;20028;-41
2022/05/27 01:28:58;;;;;;;3.28;1.35;;;15.60;99.90;;;;;;4946783;29;20039;-40
2022/05/27 01:31:44;;;;;;;5.13;2.05;;;15.50;99.90;;;;;;4949483;29;20027;-41
2022/05/27 01:34:28;;;;;;;3.58;1.75;;;15.50;99.90;;;;;;4950844;29;20023;-35
2022/05/27 01:37:22;;;;;;;4.13;1.60;;;15.40;99.90;;;;;;4950859;28;20031;-42
2022/05/27 01:40:08;;;;;;;3.60;1.70;;;15.40;99.90;;;;;;4950972;28;20015;-41
2022/05/27 01:43:10;;;;;;;4.03;1.50;;;15.40;99.90;;;;;;4949386;28;20467;-41
2022/05/27 01:46:09;;;;;;;3.70;1.50;;;15.40;99.90;;;;;;4949221;28;20035;-40
2022/05/27 01:49:12;;;;;;;5.13;1.73;;;15.50;99.90;;;;;;4948657;29;20441;-41
2022/05/27 01:51:53;;;;;;;4.07;1.90;;;15.50;99.90;;;;;;4929601;29;20388;-42
2022/05/27 01:54:38;;;;;;;2.58;1.40;;;15.50;99.90;;;;;;4947625;29;20403;-41
2022/05/27 01:57:10;;;;;;;3.78;1.67;;;15.50;99.90;;;;;;4949934;28;20050;-41
2022/05/27 01:59:47;;;;;;;2.47;1.67;;;15.50;99.90;;;;;;4948445;29;20465;-41
2022/05/27 02:02:18;;;;;;;4.88;1.70;;;15.50;99.90;;;;;;4949533;29;20024;-40
2022/05/27 02:05:15;;;;;;;2.80;1.67;;;15.50;99.90;;;;;;4948683;28;20137;-41
2022/05/27 02:07:56;;;;;;;5.03;2.20;;;15.50;99.90;;;;;;4948913;29;20043;-42
2022/05/27 02:10:41;;;;;;;4.22;2.20;;;15.50;99.90;;;;;;4949428;29;20042;-43
2022/05/27 02:13:14;;;;;;;5.55;2.20;;;15.50;99.90;;;;;;4948925;29;20035;-41
2022/05/27 02:15:43;;;;;;;5.53;2.00;;;15.50;99.90;;;;;;4949203;29;20113;-41
2022/05/27 02:18:21;;;;;;;4.18;1.95;;;15.50;99.90;;;;;;4949877;28;20162;-41
2022/05/27 02:21:10;;;;;;;9.02;2.45;;;15.50;99.90;;;;;;4946756;29;20034;-42
2022/05/27 02:23:40;;;;;;;4.70;2.22;;;15.50;99.90;;;;;;4948591;28;20054;-42
2022/05/27 02:26:16;;;;;;;6.07;1.85;;;15.50;99.90;;;;;;4949099;28;20370;-42
2022/05/27 02:28:46;;;;;;;5.50;2.10;;;15.40;99.90;;;;;;4949258;29;20050;-42
2022/05/27 02:31:17;;;;;;;3.80;2.10;;;15.40;99.90;;;;;;4949426;29;20050;-42
2022/05/27 02:36:43;;;;;;;5.70;2.20;;;15.40;99.90;;;;;;4941110;29;20054;-42
2022/05/27 02:39:09;;;;;;;5.57;2.22;;;15.40;99.90;;;;;;4949565;28;20027;-41
2022/05/27 02:41:43;;;;;;;5.15;2.30;;;15.40;99.90;;;;;;4948343;28;20050;-41
2022/05/27 02:44:26;;;;;;;7.05;2.58;;;15.30;99.90;;;;;;4948926;28;20033;-41
2022/05/27 02:47:27;;;;;;;7.38;2.53;;;15.30;99.90;;;;;;4949286;28;20114;-41
2022/05/27 02:50:26;;;;;;;5.55;2.55;;;15.20;99.90;;;;;;4949370;28;20043;-41
2022/05/27 02:52:51;;;;;;;4.95;2.25;;;15.20;99.90;;;;;;4948841;28;20039;-42
2022/05/27 02:55:33;;;;;;;8.80;2.58;;;15.10;99.90;;;;;;4948247;29;20042;-41
2022/05/27 02:58:02;;;;;;;5.57;2.67;;;15.10;99.90;;;;;;4949842;29;20030;-42
2022/05/27 03:00:30;;;;;;;4.72;2.30;;;15.10;99.90;;;;;;4948213;28;20038;-40
2022/05/27 03:03:02;;;;;;;6.53;2.53;;;15.10;99.90;;;;;;4948600;29;20380;-42
2022/05/27 03:05:44;;;;;;;5.00;2.60;;;15.00;99.90;;;;;;4948324;29;20387;-42
2022/05/27 03:08:27;;;;;;;5.63;2.20;;;15.00;99.90;;;;;;4949340;28;20023;-42
2022/05/27 03:10:57;;;;;;;5.35;2.50;;;15.00;99.90;;;;;;4948879;28;20035;-42
2022/05/27 03:13:39;;;;;;;5.82;2.53;;;15.00;99.90;;;;;;4951089;28;20023;-42
2022/05/27 03:16:21;;;;;;;5.22;2.40;;;15.00;99.90;;;;;;4952297;28;20027;-41
2022/05/27 03:19:11;;;;;;;6.25;2.72;;;15.10;99.90;;;;;;4952173;29;20466;-41
2022/05/27 03:22:03;;;;;;;5.05;2.30;;;15.10;99.90;;;;;;4951156;29;20129;-40
2022/05/27 03:24:50;;;;;;;5.18;2.42;;;15.10;99.90;;;;;;4932414;29;20464;-41
2022/05/27 03:27:40;;;;;;;5.57;2.45;;;15.10;99.90;;;;;;4949151;29;20502;-41
2022/05/27 03:30:15;;;;;;;5.88;2.80;;;15.10;99.90;;;;;;4951770;28;20500;-42
2022/05/27 03:32:55;;;;;;;6.90;2.80;;;15.00;99.90;;;;;;4951451;29;20398;-42
2022/05/27 03:35:47;;;;;;;6.47;2.80;;;15.00;99.90;;;;;;4952291;28;20027;-41
2022/05/27 03:38:33;;;;;;;6.45;2.40;;;15.00;99.90;;;;;;4951801;28;20035;-41
2022/05/27 03:41:11;;;;;;;7.47;2.33;;;14.90;99.90;;;;;;4951552;28;20049;-41
2022/05/27 03:43:38;;;;;;;5.68;1.98;;;15.00;99.90;;;;;;4951047;28;20105;-40
2022/05/27 03:46:04;;;;;;;4.85;2.13;;;15.00;99.90;;;;;;4951883;28;20482;-42
2022/05/27 03:48:32;;;;;;;5.00;2.10;;;14.90;99.90;;;;;;4951053;29;20556;-42
2022/05/27 03:51:12;;;;;;;6.05;2.45;;;14.90;99.90;;;;;;4951541;28;20075;-42
2022/05/27 03:56:22;;;;;;;6.20;2.22;;;14.80;99.90;;;;;;4950951;29;20470;-42
2022/05/27 03:58:48;;;;;;;8.85;2.40;;;14.80;99.90;;;;;;4950940;28;20027;-40
2022/05/27 04:01:13;;;;;;;10.18;2.50;;;14.70;99.90;;;;;;4951867;29;20019;-40
2022/05/27 04:03:39;;;;;;;6.10;2.63;;;14.80;99.90;;;;;;4950748;29;20506;-42
2022/05/27 04:06:04;;;;;;;4.72;2.03;;;14.70;99.90;;;;;;4951141;29;20035;-40
2022/05/27 04:08:30;;;;;;;5.97;2.55;;;14.70;99.90;;;;;;4950954;29;20534;-43
2022/05/27 04:10:55;;;;;;;5.38;2.65;;;14.70;99.90;;;;;;4951241;29;20078;-39
2022/05/27 04:13:21;;;;;;;5.55;2.25;;;14.70;99.90;;;;;;4950304;29;20042;-41
2022/05/27 04:15:46;;;;;;;4.68;2.20;;;14.70;99.90;;;;;;4951174;29;20122;-41
2022/05/27 04:18:12;;;;;;;5.63;2.10;;;14.80;99.90;;;;;;4951099;29;20032;-41
2022/05/27 04:20:41;;;;;;;4.82;2.58;;;14.70;99.90;;;;;;4950430;28;20023;-41
2022/05/27 04:23:07;;;;;;;5.78;2.38;;;14.70;99.90;;;;;;4950754;28;20089;-40
2022/05/27 04:25:32;;;;;;;5.28;2.30;;;14.70;99.90;;;;;;4950942;29;20032;-41
2022/05/27 04:27:58;;;;;;;7.85;2.70;;;14.70;99.90;;;;;;4951175;29;20565;-40
2022/05/27 04:30:24;;;;;;;7.22;2.30;;;14.70;99.90;;;;;;4950436;29;20050;-41
2022/05/27 04:32:49;;;;;;;9.10;2.22;;;14.70;99.90;;;;;;4950251;28;20118;-43
2022/05/27 04:35:15;;;;;;;7.47;3.03;;;14.70;99.90;;;;;;4950751;29;20443;-42
2022/05/27 04:37:41;;;;;;;5.10;2.05;;;14.80;99.90;;;;;;4950422;29;20035;-42
2022/05/27 04:40:07;;;;;;;4.05;1.85;;;14.80;99.90;;;;;;4949315;29;20580;-41
2022/05/27 04:42:32;;;;;;;5.53;2.33;;;14.80;99.90;;;;;;4950667;29;20026;-42
2022/05/27 04:44:58;;;;;;;9.63;2.60;;;14.80;99.90;;;;;;4950290;29;20039;-41
2022/05/27 04:47:23;;;;;;;9.77;2.50;;;14.80;99.90;;;;;;4949731;29;20054;-40
2022/05/27 04:49:53;;;;;;;8.38;2.85;;;14.80;99.90;;;;;;4950415;29;20042;-41
2022/05/27 04:52:22;;;;;;;5.10;2.22;;;14.80;99.90;;;;;;4950427;28;20078;-42
2022/05/27 04:54:49;;;;;;;5.32;2.33;;;14.80;99.90;;;;;;4949692;29;20526;-43
2022/05/27 04:57:20;;;;;;;5.22;2.30;;;14.90;99.90;;;;;;4950476;28;20028;-40
2022/05/27 04:59:49;;;;;;;6.37;2.37;;;14.90;99.90;;;;;;4950287;28;20110;-42
2022/05/27 05:02:20;;;;;;;8.45;2.63;;;14.90;99.90;;;;;;4949673;28;20506;-41
2022/05/27 05:04:45;;;;;;;7.30;2.72;;;14.90;99.90;;;;;;4949933;28;20046;-41
2022/05/27 05:07:11;;;;;;;6.50;2.60;;;14.90;99.90;;;;;;4950597;29;20031;-42
2022/05/27 05:09:39;;;;;;;7.78;2.88;;;14.90;99.90;;;;;;4949100;29;20122;-41
2022/05/27 05:12:06;;;;;;;5.90;3.05;;;14.90;99.90;;;;;;4950182;28;20086;-41
2022/05/27 05:14:32;;;;;;;8.60;3.45;;;15.00;99.90;;;;;;4949764;28;20037;-42
2022/05/27 05:16:57;;;;;;;8.55;2.70;;;14.90;99.90;;;;;;4949577;28;20374;-41
2022/05/27 05:19:23;;;;;;;6.82;2.95;;;14.90;99.90;;;;;;4949733;29;20451;-41
2022/05/27 05:21:49;;;;;;;8.57;2.42;;;14.90;99.90;;;;;;4949916;29;20030;-41
2022/05/27 05:24:14;;;;;;;7.38;2.88;;;14.90;99.90;;;;;;4949852;28;20110;-41
2022/05/27 05:26:40;;;;;;;7.38;2.70;;;15.00;99.90;;;;;;4949373;29;20034;-40
2022/05/27 05:29:06;;;;;;;9.13;2.80;;;15.10;99.90;;;;;;4949660;29;20049;-39
2022/05/27 05:31:32;;;;;;;5.13;2.30;;;15.10;99.90;;;;;;4949469;29;20034;-41
2022/05/27 05:33:59;;;;;;;6.03;2.47;;;15.20;99.90;;;;;;4949846;29;20031;-41
2022/05/27 05:36:26;;;;;;;9.80;3.97;;;15.30;99.90;;;;;;4944261;29;20114;-41
2022/05/27 05:38:51;;;;;;;9.32;2.83;;;15.30;99.90;;;;;;4950370;28;20462;-42
2022/05/27 05:41:36;;;;;;;7.57;3.08;;;15.40;99.90;;;;;;4949248;29;20093;-41
2022/05/27 05:44:02;;;;;;;5.20;2.70;;;15.40;99.90;;;;;;4949207;28;20431;-41
2022/05/27 05:46:30;;;;;;;8.00;2.95;;;15.50;99.90;;;;;;4949034;29;20058;-42
2022/05/27 05:48:56;;;;;;;6.00;2.30;;;15.60;99.90;;;;;;4949753;28;20126;-42
2022/05/27 05:51:21;;;;;;;6.15;2.67;;;15.60;99.90;;;;;;4948772;29;20130;-42
2022/05/27 05:53:47;;;;;;;6.10;2.80;;;15.60;99.90;;;;;;4949827;29;20038;-41
2022/05/27 05:56:13;;;;;;;8.43;2.70;;;15.70;99.90;;;;;;4949132;29;20054;-41
2022/05/27 05:58:39;;;;;;;6.10;2.70;;;15.70;99.90;;;;;;4948459;28;20562;-42
2022/05/27 06:01:05;;;;;;;3.90;1.88;;;15.70;99.90;;;;;;4949496;29;20039;-39
2022/05/27 06:03:30;;;;;;;4.78;2.35;;;15.80;99.90;;;;;;4949384;29;20137;-42
2022/05/27 06:05:56;;;;;;;6.90;2.70;;;15.90;99.90;;;;;;4949461;29;20030;-41
2022/05/27 06:08:21;;;;;;;6.22;2.60;;;15.90;99.90;;;;;;4949064;29;20094;-41
2022/05/27 06:10:50;;;;;;;5.20;2.53;;;16.00;99.90;;;;;;4949153;29;20043;-42
2022/05/27 06:13:16;;;;;;;4.70;2.20;;;15.90;99.90;;;;;;4948298;29;20016;-41
2022/05/27 06:15:41;;;;;;;7.07;2.58;;;16.00;99.90;;;;;;4949530;29;20176;-42
2022/05/27 06:18:07;;;;;;;9.95;2.80;;;16.10;99.90;;;;;;4948962;28;20031;-43
2022/05/27 06:20:37;;;;;;;11.18;2.75;;;16.10;99.90;;;;;;4949698;28;20407;-41
2022/05/27 06:23:04;;;;;;;6.63;2.30;;;16.20;99.90;;;;;;4948945;28;20069;-41
2022/05/27 06:25:30;;;;;;;7.10;2.45;;;16.30;99.90;;;;;;4948424;29;20042;-41
2022/05/27 06:34:23;;;;;;;5.90;2.17;;;16.40;99.90;;;;;;4949313;29;20027;-43
2022/05/27 06:36:09;;;;;;;4.70;1.90;;;16.60;99.90;;;;;;4949625;29;20058;-37
2022/05/27 06:38:37;;;;;;;5.95;2.17;;;16.60;99.90;;;;;;4948873;28;20471;-41
2022/05/27 06:41:03;;;;;;;7.30;2.33;;;16.60;99.90;;;;;;4949135;28;20031;-41
2022/05/27 06:43:28;;;;;;;5.18;1.95;;;16.50;99.90;;;;;;4948972;28;20542;-42
2022/05/27 06:45:54;;;;;;;6.55;2.10;;;16.40;99.90;;;;;;4949278;29;20028;-41
2022/05/27 06:48:19;;;;;;;7.60;2.67;;;16.40;99.90;;;;;;4950387;28;20093;-41
2022/05/27 06:50:45;;;;;;;6.68;1.83;;;16.40;99.90;;;;;;4952429;28;20055;-40
2022/05/27 06:53:10;;;;;;;7.50;2.08;;;16.30;99.90;;;;;;4953285;29;20018;-40
2022/05/27 06:55:36;;;;;;;6.38;2.17;;;16.30;99.90;;;;;;4951753;29;20040;-41
2022/05/27 06:58:02;;;;;;;6.82;2.25;;;16.30;99.90;;;;;;4952397;28;20632;-41
2022/05/27 07:00:28;;;;;;;6.25;2.20;;;16.30;99.90;;;;;;4951741;28;20063;-40
2022/05/27 07:02:53;;;;;;;5.15;1.95;;;16.30;99.90;;;;;;4952635;29;20518;-41
2022/05/27 07:05:19;;;;;;;5.88;1.80;;;16.30;99.90;;;;;;4951974;29;20035;-42
2022/05/27 07:07:44;;;;;;;5.68;2.40;;;16.30;99.90;;;;;;4949475;29;20046;-41
2022/05/27 07:10:10;;;;;;;9.98;2.53;;;16.20;99.90;;;;;;4951127;29;20520;-40
2022/05/27 07:12:36;;;;;;;10.20;2.60;;;16.20;99.90;;;;;;4951138;29;20106;-39
2022/05/27 07:15:02;;;;;;;8.90;2.55;;;16.10;99.90;;;;;;4950916;28;20038;-43
2022/05/27 07:17:27;;;;;;;7.65;1.85;;;16.10;99.90;;;;;;4950911;28;20040;-41
2022/05/27 07:19:53;;;;;;;5.63;1.80;;;16.10;99.90;;;;;;4951384;28;20055;-39
2022/05/27 07:22:18;;;;;;;8.32;2.28;;;16.00;99.90;;;;;;4951490;28;20046;-41
2022/05/27 07:24:44;;;;;;;7.57;2.45;;;16.00;99.90;;;;;;4950792;29;20031;-41
2022/05/27 07:27:10;;;;;;;10.05;2.60;;;15.90;99.90;;;;;;4951680;29;20427;-41
2022/05/27 07:29:35;;;;;;;5.65;2.58;;;15.80;99.90;;;;;;4950537;29;20032;-40
2022/05/27 07:32:01;;;;;;;6.93;2.40;;;15.80;99.80;;;;;;4951322;28;20073;-41
2022/05/27 07:34:27;;;;;;;8.18;2.60;;;15.80;99.00;;;;;;4950402;29;20034;-41
2022/05/27 07:36:53;;;;;;;10.93;2.75;;;15.80;99.60;;;;;;4950943;29;20420;-39
2022/05/27 07:39:18;;;;;;;5.03;1.88;;;15.80;99.80;;;;;;4950221;28;20015;-41
2022/05/27 07:41:44;;;;;;;9.48;2.40;;;15.90;99.40;;;;;;4951370;29;20385;-39
2022/05/27 07:44:10;;;;;;;10.00;2.35;;;16.00;99.20;;;;;;4950647;29;20085;-39
2022/05/27 07:46:37;;;;;;;5.50;2.10;;;16.00;98.10;;;;;;4949724;28;20023;-41
2022/05/27 07:49:09;;;;;;;7.13;2.47;;;16.10;98.20;;;;;;4950903;28;20282;-40
2022/05/27 07:51:34;;;;;;;6.38;1.88;;;16.20;98.70;;;;;;4949579;28;20047;-43
2022/05/27 07:54:03;;;;;;;5.43;2.05;;;16.30;99.30;;;;;;4950803;29;20043;-41
2022/05/27 07:56:28;;;;;;;8.73;2.53;;;16.40;96.90;;;;;;4950481;29;20118;-40
2022/05/27 07:58:54;;;;;;;6.18;2.50;;;16.30;95.80;;;;;;4950128;28;20121;-40
2022/05/27 08:01:19;;;;;;;11.68;2.42;;;16.30;96.50;;;;;;4949909;29;20089;-40
2022/05/27 08:03:45;;;;;;;9.10;2.65;;;16.30;96.70;;;;;;4949669;29;20054;-41
2022/05/27 08:06:11;;;;;;;6.00;2.03;;;16.40;96.10;;;;;;4951113;29;20394;-41
2022/05/27 08:08:37;;;;;;;6.60;1.67;;;16.40;96.50;;;;;;4951140;28;20038;-42
2022/05/27 08:11:03;;;;;;;7.32;2.00;;;16.40;97.10;;;;;;4950758;28;20042;-40
2022/05/27 08:13:29;;;;;;;7.15;2.22;;;16.40;97.20;;;;;;4951066;28;20019;-40
2022/05/27 08:15:55;;;;;;;6.18;1.90;;;16.50;97.40;;;;;;4950984;29;20023;-41
2022/05/27 08:18:21;;;;;;;8.85;2.08;;;16.40;97.40;;;;;;4951237;28;20490;-40
2022/05/27 08:20:47;;;;;;;9.55;2.58;;;16.40;97.40;;;;;;4951021;29;20027;-41
2022/05/27 08:23:13;;;;;;;7.13;1.70;;;16.40;97.60;;;;;;4950823;29;20050;-40
2022/05/27 08:25:38;;;;;;;8.45;2.55;;;16.50;97.70;;;;;;4950400;28;20121;-41
2022/05/27 08:28:05;;;;;;;9.32;2.80;;;16.60;97.20;;;;;;4951372;29;20019;-40
2022/05/27 08:30:33;;;;;;;5.95;2.10;;;16.70;96.50;;;;;;4950341;28;20098;-42
2022/05/27 08:32:59;;;;;;;7.97;1.95;;;16.80;96.90;;;;;;4951022;28;20019;-41
2022/05/27 08:38:16;;;;;;;4.78;1.98;;;17.00;97.10;;;;;;4950686;29;20031;-40
2022/05/27 08:41:05;;;;;;;6.88;2.10;;;17.10;97.10;;;;;;4950214;28;20046;-40
2022/05/27 08:43:31;;;;;;;6.88;2.17;;;17.10;96.90;;;;;;4947934;29;20042;-41
2022/05/27 08:46:01;;;;;;;7.72;2.03;;;17.10;97.10;;;;;;4950398;29;20027;-41
2022/05/27 08:48:32;;;;;;;9.85;2.65;;;17.10;97.20;;;;;;4949230;29;20019;-41
2022/05/27 08:51:17;;;;;;;5.35;1.80;;;16.90;95.40;;;;;;4950844;28;20134;-41
2022/05/27 08:53:58;;;;;;;8.35;2.17;;;16.80;95.60;;;;;;4950156;28;20027;-39
2022/05/27 08:59:32;;;;;;;5.68;2.20;;;16.60;95.40;;;;;;4949674;29;20054;-42
2022/05/27 09:02:25;;;;;;;6.50;2.20;;;16.60;95.20;;;;;;4949978;28;20379;-40
2022/05/27 09:05:21;;;;;;;8.57;2.33;;;16.70;95.00;;;;;;4941964;29;20039;-41
2022/05/27 09:07:46;;;;;;;7.20;2.70;;;16.80;93.80;;;;;;4948852;29;20050;-40
2022/05/27 09:10:18;;;;;;;5.80;2.10;;;16.80;92.80;;;;;;4951458;28;20043;-40
2022/05/27 09:13:19;;;;;;;9.00;2.38;;;16.70;93.20;;;;;;4951282;28;20541;-40
2022/05/27 09:16:01;;;;;;;4.88;1.70;;;16.60;93.50;;;;;;4945095;29;20118;-40
2022/05/27 09:18:32;;;;;;;7.43;2.22;;;16.80;93.90;;;;;;4951610;28;20125;-38
2022/05/27 09:21:19;;;;;;;6.57;1.80;;;16.90;93.40;;;;;;4950259;29;20505;-42
2022/05/27 09:24:09;;;;;;;6.40;2.17;;;17.00;93.40;;;;;;4949936;29;20041;-41
2022/05/27 09:27:13;;;;;;;6.20;2.40;;;17.10;93.20;;;;;;4928205;29;20038;-43
2022/05/27 09:29:54;;;;;;;6.35;1.90;;;17.10;93.00;;;;;;4912854;29;20044;-42
2022/05/27 09:32:55;;;;;;;6.32;2.15;;;17.20;93.10;;;;;;4926146;29;20083;-41
2022/05/27 09:35:52;;;;;;;8.88;2.78;;;17.10;93.00;;;;;;4897721;29;20409;-40
2022/05/27 09:38:30;;;;;;;7.82;2.55;;;17.00;92.20;;;;;;4947736;29;20086;-40
2022/05/27 09:40:59;;;;;;;6.00;1.85;;;16.80;91.60;;;;;;4939410;29;20198;-40
2022/05/27 09:43:40;;;;;;;7.68;2.35;;;16.70;92.40;;;;;;4947277;28;20028;-42
2022/05/27 09:46:11;;;;;;;8.32;2.03;;;16.80;92.30;;;;;;4938846;29;20055;-41
2022/05/27 09:48:36;;;;;;;5.88;2.65;;;16.90;91.40;;;;;;4947304;28;20118;-42
2022/05/27 09:51:08;;;;;;;8.77;2.50;;;17.00;91.80;;;;;;4830440;28;20047;-41
2022/05/27 09:53:40;;;;;;;9.05;2.40;;;17.20;91.40;;;;;;4947039;28;20608;-42
2022/05/27 09:56:08;;;;;;;8.65;2.35;;;17.20;91.70;;;;;;4947648;28;20023;-42
2022/05/27 09:58:40;;;;;;;9.57;3.00;;;17.20;91.40;;;;;;4947592;28;20403;-41
2022/05/27 10:01:26;;;;;;;9.27;2.92;;;17.20;90.70;;;;;;4947933;28;20031;-40
2022/05/27 10:04:20;;;;;;;7.93;2.30;;;17.20;90.60;;;;;;4947367;28;20035;-41
2022/05/27 10:06:46;;;;;;;8.13;2.30;;;17.10;90.10;;;;;;4934499;29;20050;-42
2022/05/27 10:09:33;;;;;;;7.10;2.10;;;17.10;90.80;;;;;;4947717;28;20051;-40
2022/05/27 10:11:59;;;;;;;5.90;1.70;;;17.00;90.50;;;;;;4938553;29;20038;-41
2022/05/27 10:14:28;;;;;;;7.28;2.22;;;17.00;90.90;;;;;;4946798;28;20454;-40
2022/05/27 10:17:14;;;;;;;4.78;1.83;;;16.90;90.60;;;;;;4946796;28;20023;-40
2022/05/27 10:19:48;;;;;;;6.35;2.10;;;16.90;90.90;;;;;;4947890;28;20027;-39
2022/05/27 10:22:23;;;;;;;6.30;2.17;;;16.90;90.50;;;;;;4939839;29;20164;-41
2022/05/27 10:25:16;;;;;;;7.43;2.10;;;16.90;89.70;;;;;;4951174;28;20586;-41
2022/05/27 10:28:03;;;;;;;6.63;2.42;;;16.90;90.00;;;;;;4941861;29;20383;-43
2022/05/27 10:30:38;;;;;;;5.05;2.13;;;16.90;88.00;;;;;;4951065;28;20123;-44
2022/05/27 10:33:22;;;;;;;6.53;2.20;;;17.00;89.70;;;;;;4950965;28;20031;-44
2022/05/27 10:35:49;;;;;;;9.13;2.10;;;17.00;89.90;;;;;;4950268;28;20019;-43
2022/05/27 10:38:39;;;;;;;6.55;1.80;;;17.00;90.00;;;;;;4951730;29;20493;-44
2022/05/27 10:41:20;;;;;;;9.65;2.28;;;17.00;90.10;;;;;;4951199;29;20031;-44
2022/05/27 10:43:48;;;;;;;7.57;2.30;;;17.00;88.80;;;;;;4951657;28;20070;-44
2022/05/27 10:46:19;;;;;;;4.93;1.70;;;17.00;88.70;;;;;;4950234;29;20027;-42
2022/05/27 10:48:58;;;;;;;4.40;1.88;;;17.00;88.60;;;;;;4951259;28;20035;-43
2022/05/27 10:51:48;;;;;;;5.65;2.15;;;17.10;89.20;;;;;;4950825;28;20063;-44
2022/05/27 10:54:28;;;;;;;5.80;1.95;;;17.10;89.40;;;;;;4951174;28;20069;-44
2022/05/27 11:03:04;;;;;;;10.55;2.15;;;17.10;88.40;;;;;;4951058;29;20090;-44
2022/05/27 11:06:07;;;;;;;4.65;2.10;;;17.10;87.50;;;;;;4950518;29;20031;-43
2022/05/27 11:08:36;;;;;;;7.88;2.55;;;17.00;87.80;;;;;;4949138;29;20122;-43
2022/05/27 11:11:07;;;;;;;6.47;2.25;;;17.10;86.90;;;;;;4951409;28;20122;-44
2022/05/27 11:17:12;;;;;;;7.32;2.30;;;17.10;86.60;;;;;;4949376;29;20038;-43
2022/05/27 11:20:01;;;;;;;7.35;2.10;;;17.10;86.50;;;;;;4951177;28;20517;-43
2022/05/27 11:22:39;;;;;;;7.43;2.08;;;17.10;87.00;;;;;;4951121;28;20110;-44
2022/05/27 11:25:31;;;;;;;4.90;2.05;;;17.20;86.40;;;;;;4951842;28;20031;-44
2022/05/27 11:28:18;;;;;;;9.38;1.90;;;17.10;86.40;;;;;;4950123;28;20023;-44
2022/05/27 11:30:54;;;;;;;8.75;2.63;;;17.10;86.30;;;;;;4931766;29;20047;-43
2022/05/27 11:33:52;;;;;;;5.82;2.00;;;17.10;84.10;;;;;;4945714;28;20526;-44
2022/05/27 11:36:29;;;;;;;5.82;2.15;;;17.10;85.50;;;;;;4941446;29;20040;-44
2022/05/27 11:39:32;;;;;;;5.20;1.60;;;17.20;85.80;;;;;;4950890;28;20387;-44
2022/05/27 11:42:19;;;;;;;11.05;2.20;;;17.30;86.00;;;;;;4950203;29;20386;-44
2022/05/27 11:45:08;;;;;;;5.72;2.03;;;17.40;82.80;;;;;;4949627;29;20070;-44
2022/05/27 11:47:58;;;;;;;4.78;1.60;;;17.30;83.70;;;;;;4949949;28;20458;-45
2022/05/27 11:50:32;;;;;;;7.93;1.85;;;17.40;84.20;;;;;;4941987;29;20929;-43
2022/05/27 11:53:34;;;;;;;8.35;2.10;;;17.30;83.90;;;;;;4912312;29;20039;-44
2022/05/27 11:56:11;;;;;;;7.13;2.27;;;17.30;84.80;;;;;;4911861;29;20420;-44
2022/05/27 11:59:06;;;;;;;6.18;2.00;;;17.30;84.30;;;;;;4911492;29;20506;-44
2022/05/27 12:01:40;;;;;;;5.13;2.08;;;17.30;84.80;;;;;;4912874;29;20040;-44
2022/05/27 12:04:25;;;;;;;6.60;1.83;;;17.40;84.80;;;;;;4911418;29;20552;-44
2022/05/27 12:07:34;;;;;;;9.68;2.30;;;17.40;85.10;;;;;;4911599;29;20107;-45
2022/05/27 12:10:18;;;;;;;8.27;2.78;;;17.60;84.60;;;;;;4917346;29;20056;-44
2022/05/27 12:12:59;;;;;;;7.45;2.15;;;17.70;83.40;;;;;;4911908;29;20060;-45
2022/05/27 12:15:36;;;;;;;7.05;1.73;;;17.60;83.80;;;;;;4911071;29;20059;-45
2022/05/27 12:18:08;;;;;;;5.35;1.85;;;17.70;84.40;;;;;;4911092;29;20063;-44
2022/05/27 12:20:37;;;;;;;5.80;1.77;;;17.70;84.50;;;;;;4911692;29;20024;-46
2022/05/27 12:23:06;;;;;;;5.85;1.75;;;17.80;85.70;;;;;;4912111;29;20036;-43
2022/05/27 12:25:37;;;;;;;10.20;2.50;;;17.80;83.70;;;;;;4910402;29;20417;-45
2022/05/27 12:28:04;;;;;;;9.88;2.45;;;17.80;83.90;;;;;;4911567;29;20067;-45
2022/05/27 12:30:39;;;;;;;8.05;2.80;;;17.70;83.10;;;;;;4910480;29;20055;-44
2022/05/27 12:33:06;;;;;;;7.47;2.40;;;17.60;82.00;;;;;;4911667;29;20032;-45
2022/05/27 12:35:31;;;;;;;11.13;2.80;;;17.50;81.50;;;;;;4910574;29;20495;-45
2022/05/27 12:38:05;;;;;;;7.32;2.10;;;17.40;82.60;;;;;;4910948;29;20035;-45
2022/05/27 12:40:38;;;;;;;6.50;2.17;;;17.30;82.70;;;;;;4910685;29;20064;-43
2022/05/27 12:43:19;;;;;;;6.75;1.83;;;17.30;81.80;;;;;;4911088;29;20443;-44
2022/05/27 12:45:46;;;;;;;5.85;2.10;;;17.30;80.80;;;;;;4910543;29;20035;-44
2022/05/27 12:48:26;;;;;;;7.03;2.45;;;17.30;81.70;;;;;;4911109;29;20479;-45
2022/05/27 12:50:58;;;;;;;9.88;2.20;;;17.30;81.20;;;;;;4918259;29;20067;-44
2022/05/27 12:53:43;;;;;;;7.82;2.28;;;17.40;81.30;;;;;;4948400;28;20030;-44
2022/05/27 13:02:19;;;;;;;8.95;2.30;;;17.60;81.10;;;;;;4946448;29;20061;-44
2022/05/27 13:05:00;;;;;;;7.82;2.00;;;17.60;80.50;;;;;;4948320;29;20291;-45
2022/05/27 13:07:28;;;;;;;4.45;1.60;;;17.50;80.90;;;;;;4946394;29;20077;-45
2022/05/27 13:09:55;;;;;;;5.72;1.80;;;17.50;81.40;;;;;;4947969;29;20043;-45
2022/05/27 13:12:46;;;;;;;8.10;2.20;;;17.60;81.80;;;;;;4948225;28;20035;-44
2022/05/27 13:15:28;;;;;;;9.77;1.90;;;17.80;81.60;;;;;;4948543;28;20039;-44
2022/05/27 13:18:09;;;;;;;7.68;2.20;;;17.80;79.20;;;;;;4948110;29;20114;-44
2022/05/27 13:20:55;;;;;;;4.40;1.55;;;17.70;80.70;;;;;;4947451;28;20031;-44
2022/05/27 13:23:28;;;;;;;8.30;2.17;;;17.60;81.60;;;;;;4939372;29;20042;-44
2022/05/27 13:26:02;;;;;;;9.25;2.25;;;17.70;79.20;;;;;;4948717;28;20031;-44
2022/05/27 13:28:52;;;;;;;5.38;1.95;;;17.60;78.60;;;;;;4938264;29;20118;-43
2022/05/27 13:31:39;;;;;;;9.30;1.90;;;17.60;79.50;;;;;;4947361;29;20506;-44
2022/05/27 13:34:16;;;;;;;5.55;1.70;;;17.50;80.30;;;;;;4948627;29;20031;-44
2022/05/27 13:36:54;;;;;;;6.22;1.90;;;17.50;80.40;;;;;;4948641;28;20066;-44
2022/05/27 13:39:25;;;;;;;5.40;1.58;;;17.50;80.20;;;;;;4947881;29;20553;-44
2022/05/27 13:41:52;;;;;;;6.53;2.10;;;17.60;79.40;;;;;;4947979;28;20023;-44
2022/05/27 13:44:21;;;;;;;6.65;1.90;;;17.70;79.10;;;;;;4947656;29;20028;-45
2022/05/27 13:46:58;;;;;;;5.00;1.50;;;17.80;78.70;;;;;;4947943;28;20062;-44
2022/05/27 13:49:30;;;;;;;4.20;1.25;;;17.90;79.20;;;;;;4946813;29;20039;-43
2022/05/27 13:51:57;;;;;;;6.03;1.73;;;18.10;79.00;;;;;;4947866;28;20063;-44